Time;durP1;ratioP1;P1;durP2;ratioP2;P2;SDS_P1;SDS_P2;PMS_P1;PMS_P2;Temp;Humidity;BMP_temperature;BMP_pressure;BME280_temperature;BME280_humidity;BME280_pressure;Samples;Min_cycle;Max_cycle;Signal;HPM_P1;HPM_P2
2022/09/21 00:00:52;;;;;;;11.47;5.03;;;;;;;-145.18;100.00;46650.63;4994106;28;20041;-76
2022/09/21 00:03:18;;;;;;;19.47;5.70;;;;;;;-145.18;100.00;46652.59;5011343;28;20097;-75
2022/09/21 00:05:44;;;;;;;8.03;4.73;;;;;;;-145.18;100.00;46650.63;5011692;28;20077;-75
2022/09/21 00:08:12;;;;;;;8.97;4.10;;;;;;;-145.18;100.00;46650.63;5011391;28;20041;-75
2022/09/21 00:10:38;;;;;;;9.67;4.30;;;;;;;-145.18;100.00;46650.63;5011275;28;20342;-75
2022/09/21 00:13:04;;;;;;;7.87;4.17;;;;;;;-145.18;100.00;46650.63;5010687;28;20267;-75
2022/09/21 00:15:30;;;;;;;9.67;3.97;;;;;;;-145.18;100.00;46646.72;5011472;28;20264;-75
2022/09/21 00:17:57;;;;;;;7.47;3.50;;;;;;;-145.18;100.00;46652.59;5011084;28;20042;-75
2022/09/21 00:20:25;;;;;;;6.60;3.53;;;;;;;-145.18;100.00;46650.63;5011407;28;20276;-75
2022/09/21 00:22:51;;;;;;;9.70;3.63;;;;;;;-145.18;100.00;46654.53;5010850;28;20660;-75
2022/09/21 00:25:18;;;;;;;5.23;3.73;;;;;;;-145.18;100.00;46654.53;5011161;28;20306;-75
2022/09/21 00:27:44;;;;;;;6.30;4.10;;;;;;;-145.18;100.00;46650.63;5004384;28;20034;-75
2022/09/21 00:30:11;;;;;;;8.27;4.30;;;;;;;-145.18;100.00;46650.63;4991566;28;20749;-75
2022/09/21 00:32:38;;;;;;;8.63;4.17;;;;;;;-145.18;100.00;46658.44;4991034;28;20315;-74
2022/09/21 00:35:06;;;;;;;5.73;3.37;;;;;;;-145.18;100.00;46650.63;4991531;28;20076;-74
2022/09/21 00:37:33;;;;;;;6.67;3.60;;;;;;;-145.18;100.00;46652.59;4991051;28;20284;-74
2022/09/21 00:39:59;;;;;;;7.27;3.83;;;;;;;-145.18;100.00;46648.69;4991701;28;20342;-74
2022/09/21 00:42:26;;;;;;;9.47;3.03;;;;;;;-145.18;100.00;46650.63;4990974;28;20264;-74
2022/09/21 00:44:52;;;;;;;6.77;3.17;;;;;;;-145.18;100.00;46652.59;4991666;28;20083;-74
2022/09/21 00:47:41;;;;;;;6.83;3.47;;;;;;;-145.18;100.00;46654.53;4990952;28;20768;-75
2022/09/21 00:50:14;;;;;;;6.37;3.57;;;;;;;-145.18;100.00;46660.41;4991918;28;20268;-75
2022/09/21 00:52:48;;;;;;;9.27;3.50;;;;;;;-145.18;100.00;46656.50;4973439;28;20275;-75
2022/09/21 00:55:31;;;;;;;10.33;2.00;;;;;;;-145.18;100.00;46660.41;4991454;28;20748;-75
2022/09/21 00:58:07;;;;;;;4.47;2.13;;;;;;;-145.18;100.00;46660.41;4990915;28;20306;-75
2022/09/21 01:00:32;;;;;;;7.22;3.25;;;;;;;-145.18;100.00;46658.44;4990925;28;20342;-75
2022/09/21 01:03:00;;;;;;;12.60;3.70;;;;;;;-145.18;100.00;46658.44;4990855;28;20054;-74
2022/09/21 01:05:27;;;;;;;7.70;3.60;;;;;;;-145.18;100.00;46652.59;4990718;28;20113;-75
2022/09/21 01:07:55;;;;;;;9.03;4.27;;;;;;;-145.18;100.00;46658.44;4990695;28;20265;-74
2022/09/21 01:10:21;;;;;;;10.30;4.47;;;;;;;-145.18;100.00;46656.50;4991044;28;20359;-75
2022/09/21 01:13:02;;;;;;;8.43;4.73;;;;;;;-145.18;100.00;46656.50;4973528;28;20280;-74
2022/09/21 01:15:39;;;;;;;15.40;4.63;;;;;;;-145.18;100.00;46654.53;4990950;28;20752;-74
2022/09/21 01:18:32;;;;;;;9.70;4.30;;;;;;;-145.18;100.00;46658.44;4990705;28;20815;-74
2022/09/21 01:21:25;;;;;;;9.43;5.07;;;;;;;-145.18;100.00;46652.59;4991231;28;20347;-74
2022/09/21 01:23:53;;;;;;;8.57;4.77;;;;;;;-145.18;100.00;46648.69;4992050;28;20279;-74
2022/09/21 01:26:49;;;;;;;6.23;4.47;;;;;;;-145.18;100.00;46656.50;4995038;28;20378;-74
2022/09/21 01:29:32;;;;;;;8.13;3.88;;;;;;;-145.18;100.00;46652.59;4994989;28;20354;-74
2022/09/21 01:32:08;;;;;;;8.93;4.57;;;;;;;-145.18;100.00;46652.59;4994668;28;20045;-74
2022/09/21 01:34:46;;;;;;;14.70;5.28;;;;;;;-145.18;100.00;46654.53;4994796;28;20255;-74
2022/09/21 01:37:17;;;;;;;10.17;4.67;;;;;;;-145.18;100.00;46648.69;4994575;28;20026;-74
2022/09/21 01:39:47;;;;;;;12.90;4.90;;;;;;;-145.18;100.00;46650.63;4994393;28;20264;-75
2022/09/21 01:42:14;;;;;;;6.43;3.57;;;;;;;-145.18;100.00;46648.69;4994394;28;20355;-75
2022/09/21 01:44:43;;;;;;;3.57;2.23;;;;;;;-145.18;100.00;46644.78;4994519;28;20265;-75
2022/09/21 01:47:11;;;;;;;7.63;2.00;;;;;;;-145.18;100.00;46648.69;4994253;28;20294;-75
2022/09/21 01:49:47;;;;;;;2.50;1.43;;;;;;;-145.18;100.00;46646.72;4994571;28;20268;-75
2022/09/21 01:52:20;;;;;;;5.37;2.10;;;;;;;-145.18;100.00;46652.59;4994103;28;20272;-75
2022/09/21 01:54:51;;;;;;;9.80;2.90;;;;;;;-145.18;100.00;46648.69;4976840;28;20757;-75
2022/09/21 01:57:24;;;;;;;3.60;2.00;;;;;;;-145.18;100.00;46646.72;4994255;28;20309;-74
2022/09/21 01:59:54;;;;;;;5.40;2.33;;;;;;;-145.18;100.00;46648.69;4994342;28;20260;-75
2022/09/21 02:02:35;;;;;;;8.13;2.30;;;;;;;-145.18;100.00;46650.63;5257327;23;20305;-75
2022/09/21 02:05:02;;;;;;;5.37;2.80;;;;;;;-145.18;100.00;46646.72;4965356;28;20288;-75
2022/09/21 02:07:28;;;;;;;21.67;2.10;;;;;;;-145.18;100.00;46646.72;4968457;28;20723;-74
2022/09/21 02:09:55;;;;;;;4.63;2.50;;;;;;;-145.18;100.00;46648.69;4974201;28;20273;-74
2022/09/21 02:12:21;;;;;;;3.40;2.47;;;;;;;-145.18;100.00;46648.69;4974634;28;20034;-74
2022/09/21 02:14:48;;;;;;;4.83;2.43;;;;;;;-145.18;100.00;46652.59;4974708;28;20351;-74
2022/09/21 02:17:33;;;;;;;6.93;2.80;;;;;;;-145.18;100.00;46652.59;4974126;28;20265;-75
2022/09/21 02:20:18;;;;;;;9.87;3.83;;;;;;;-145.18;100.00;46646.72;4974017;28;20269;-74
2022/09/21 02:23:10;;;;;;;2.80;1.50;;;;;;;-145.18;100.00;46650.63;4974013;28;20265;-75
2022/09/21 02:25:35;;;;;;;1.30;1.07;;;;;;;-145.18;100.00;46650.63;4974345;28;20320;-75
2022/09/21 02:28:11;;;;;;;1.30;0.93;;;;;;;-145.18;100.00;46648.69;4974016;28;20296;-74
2022/09/21 02:30:39;;;;;;;5.15;2.60;;;;;;;-145.18;100.00;46648.69;4974421;28;20483;-74
2022/09/21 02:33:11;;;;;;;9.83;3.83;;;;;;;-145.18;100.00;46648.69;4973810;28;20037;-74
2022/09/21 02:35:47;;;;;;;8.70;2.80;;;;;;;-145.18;100.00;46652.59;4956022;28;20750;-74
2022/09/21 02:38:25;;;;;;;4.80;3.00;;;;;;;-145.18;100.00;46652.59;4954196;29;20269;-74
2022/09/21 02:41:13;;;;;;;6.77;3.03;;;;;;;-145.18;100.00;46648.69;4954813;29;20269;-74
2022/09/21 02:43:42;;;;;;;10.83;4.03;;;;;;;-145.18;100.00;46652.59;4967127;28;20330;-74
2022/09/21 02:46:20;;;;;;;8.10;4.43;;;;;;;-145.18;100.00;46652.59;4993443;28;20294;-74
2022/09/21 02:48:53;;;;;;;9.87;4.60;;;;;;;-145.18;100.00;46650.63;4992848;28;20303;-75
2022/09/21 02:51:24;;;;;;;9.20;4.70;;;;;;;-145.18;100.00;46648.69;4993627;28;20287;-74
2022/09/21 02:53:53;;;;;;;7.10;3.37;;;;;;;-145.18;100.00;46654.53;4993025;28;20283;-74
2022/09/21 02:56:20;;;;;;;4.70;2.77;;;;;;;-145.18;100.00;46650.63;4993458;28;20283;-74
2022/09/21 02:58:53;;;;;;;6.97;3.50;;;;;;;-145.18;100.00;46654.53;4975222;28;20272;-74
2022/09/21 03:01:19;;;;;;;6.93;2.60;;;;;;;-145.18;100.00;46652.59;4993449;28;20264;-74
2022/09/21 03:03:45;;;;;;;7.17;3.90;;;;;;;-145.18;100.00;46652.59;4992752;28;20331;-74
2022/09/21 03:06:10;;;;;;;8.10;3.90;;;;;;;-145.18;100.00;46656.50;4992950;28;20385;-74
2022/09/21 03:08:36;;;;;;;9.07;4.83;;;;;;;-145.18;100.00;46654.53;4992774;28;20434;-74
2022/09/21 03:11:01;;;;;;;8.87;4.43;;;;;;;-145.18;100.00;46654.53;4992753;28;20039;-74
2022/09/21 03:13:27;;;;;;;6.50;4.17;;;;;;;-145.18;100.00;46652.59;4962239;28;20392;-75
2022/09/21 03:16:04;;;;;;;7.17;4.00;;;;;;;-145.18;100.00;46652.59;4955911;28;20039;-75
2022/09/21 03:18:30;;;;;;;40.33;4.73;;;;;;;-145.18;100.00;46656.50;4973188;28;20038;-74
2022/09/21 03:20:56;;;;;;;5.03;3.60;;;;;;;-145.18;100.00;46652.59;4973114;28;20265;-74
2022/09/21 03:23:22;;;;;;;9.40;4.50;;;;;;;-145.18;100.00;46654.53;4973016;28;20077;-74
2022/09/21 03:25:48;;;;;;;13.33;5.83;;;;;;;-145.18;100.00;46652.59;4973206;28;20292;-75
2022/09/21 03:28:14;;;;;;;10.60;5.40;;;;;;;-145.18;100.00;46656.50;4972703;28;20038;-74
2022/09/21 03:30:40;;;;;;;13.10;6.30;;;;;;;-145.18;100.00;46652.59;4956106;28;20034;-74
2022/09/21 03:33:05;;;;;;;13.43;6.17;;;;;;;-145.18;100.00;46650.63;4972648;28;20271;-74
2022/09/21 03:35:34;;;;;;;10.37;5.97;;;;;;;-145.18;100.00;46650.63;4972882;28;20484;-74
2022/09/21 03:38:00;;;;;;;10.33;6.50;;;;;;;-145.18;100.00;46652.59;4973141;28;20468;-75
2022/09/21 03:40:26;;;;;;;8.10;6.03;;;;;;;-145.18;100.00;46650.63;4991577;28;20279;-74
2022/09/21 03:42:52;;;;;;;11.63;6.67;;;;;;;-145.18;100.00;46652.59;4992346;28;20386;-74
2022/09/21 03:45:19;;;;;;;11.87;5.07;;;;;;;-145.18;100.00;46652.59;4992617;28;20347;-74
2022/09/21 03:47:45;;;;;;;10.93;5.53;;;;;;;-145.18;100.00;46654.53;4990822;28;20838;-74
2022/09/21 03:50:10;;;;;;;8.10;5.30;;;;;;;-145.18;100.00;46656.50;4992135;28;20276;-74
2022/09/21 03:52:37;;;;;;;9.63;4.60;;;;;;;-145.18;100.00;46648.69;4982458;28;20451;-74
2022/09/21 03:55:05;;;;;;;9.73;5.00;;;;;;;-145.18;100.00;46646.72;4972762;28;20077;-75
2022/09/21 03:57:34;;;;;;;7.47;5.70;;;;;;;-145.18;100.00;46648.69;4972537;28;20269;-75
2022/09/21 04:00:02;;;;;;;15.33;5.23;;;;;;;-145.18;100.00;46652.59;4972649;28;20629;-75
2022/09/21 04:02:28;;;;;;;10.30;5.17;;;;;;;-145.18;100.00;46648.69;4972137;28;20289;-74
2022/09/21 04:04:53;;;;;;;7.03;3.97;;;;;;;-145.18;100.00;46648.69;4972657;28;20275;-75
2022/09/21 04:07:18;;;;;;;56.50;5.30;;;;;;;-145.18;100.00;46650.63;4968907;28;20034;-75
2022/09/21 04:09:44;;;;;;;8.03;4.57;;;;;;;-145.18;100.00;46646.72;4991995;28;20034;-74
2022/09/21 04:12:09;;;;;;;7.87;4.50;;;;;;;-145.18;100.00;46642.81;4991474;28;20452;-74
2022/09/21 04:14:35;;;;;;;6.30;4.90;;;;;;;-145.18;100.00;46644.78;4991795;28;20104;-74
2022/09/21 04:17:01;;;;;;;9.77;4.40;;;;;;;-145.18;100.00;46652.59;4991713;28;20038;-74
2022/09/21 04:19:26;;;;;;;4.23;2.50;;;;;;;-145.18;100.00;46648.69;4991309;28;20330;-75
2022/09/21 04:21:52;;;;;;;4.33;2.37;;;;;;;-145.18;100.00;46652.59;4974600;28;20080;-75
2022/09/21 04:24:20;;;;;;;4.87;2.60;;;;;;;-145.18;100.00;46648.69;4991007;28;20064;-75
2022/09/21 04:26:45;;;;;;;4.77;2.50;;;;;;;-145.18;100.00;46646.72;4981900;28;20039;-75
2022/09/21 04:29:12;;;;;;;3.87;2.63;;;;;;;-145.18;100.00;46652.59;4962191;28;20422;-75
2022/09/21 04:31:38;;;;;;;3.40;1.60;;;;;;;-145.18;100.00;46652.59;4972214;28;20495;-74
2022/09/21 04:34:04;;;;;;;11.30;1.30;;;;;;;-145.18;100.00;46646.72;4970466;28;20288;-74
2022/09/21 04:36:31;;;;;;;3.80;1.47;;;;;;;-145.18;100.00;46646.72;4973805;28;20033;-75
2022/09/21 04:38:59;;;;;;;4.77;2.23;;;;;;;-145.18;100.00;46648.69;4970550;28;20086;-74
2022/09/21 04:41:24;;;;;;;6.80;3.53;;;;;;;-145.18;100.00;46650.63;4973275;28;20355;-74
2022/09/21 04:43:49;;;;;;;7.43;3.93;;;;;;;-145.18;100.00;46648.69;4970293;28;21051;-74
2022/09/21 04:46:18;;;;;;;7.47;4.00;;;;;;;-145.18;100.00;46650.63;4971932;28;20046;-74
2022/09/21 04:48:45;;;;;;;5.73;3.27;;;;;;;-145.18;100.00;46652.59;4969681;28;20038;-74
2022/09/21 04:51:11;;;;;;;9.87;4.07;;;;;;;-145.18;100.00;46648.69;4971653;28;20781;-73
2022/09/21 04:53:39;;;;;;;9.80;5.10;;;;;;;-145.18;100.00;46652.59;4971748;28;20351;-74
2022/09/21 04:56:06;;;;;;;12.97;5.53;;;;;;;-145.18;100.00;46646.72;4977675;28;20316;-74
2022/09/21 04:58:31;;;;;;;10.07;4.50;;;;;;;-145.18;100.00;46652.59;4973005;28;20268;-74
2022/09/21 05:00:57;;;;;;;16.47;4.97;;;;;;;-145.18;100.00;46642.81;4991084;28;20303;-74
2022/09/21 05:03:24;;;;;;;42.10;3.90;;;;;;;-145.18;100.00;46652.59;4990478;28;20054;-74
2022/09/21 05:05:54;;;;;;;101.93;6.03;;;;;;;-145.18;100.00;46654.53;4991292;28;20045;-74
2022/09/21 05:10:01;;;;;;;12.70;5.00;;;;;;;-145.18;100.00;46652.59;4990524;28;20274;-74
2022/09/21 05:11:08;;;;;;;6.00;2.83;;;;;;;-145.18;100.00;46646.72;4976020;28;20275;-74
2022/09/21 05:13:34;;;;;;;4.37;3.03;;;;;;;-145.18;100.00;46652.59;4990293;28;20118;-74
2022/09/21 05:15:59;;;;;;;61.33;3.30;;;;;;;-145.18;100.00;46646.72;4976059;28;20356;-74
2022/09/21 05:18:25;;;;;;;22.90;2.20;;;;;;;-145.18;100.00;46652.59;4970950;28;20431;-74
2022/09/21 05:20:57;;;;;;;22.27;2.03;;;;;;;-145.18;100.00;46648.69;4970818;28;20030;-74
2022/09/21 05:23:24;;;;;;;3.87;1.70;;;;;;;-145.18;100.00;46646.72;4977908;28;20845;-74
2022/09/21 05:25:50;;;;;;;2.37;1.60;;;;;;;-145.18;100.00;46654.53;4973638;28;20352;-74
2022/09/21 05:28:17;;;;;;;3.27;1.23;;;;;;;-145.18;100.00;46650.63;4970995;28;20285;-74
2022/09/21 05:30:57;;;;;;;2.30;1.87;;;;;;;-145.18;100.00;46652.59;4932248;28;20288;-74
2022/09/21 05:33:26;;;;;;;3.13;2.23;;;;;;;-145.18;100.00;46652.59;4962195;28;20276;-74
2022/09/21 05:36:05;;;;;;;4.33;1.97;;;;;;;-145.18;100.00;46650.63;4954015;28;20315;-74
2022/09/21 05:38:31;;;;;;;3.77;1.83;;;;;;;-145.18;100.00;46652.59;4951438;29;20765;-74
2022/09/21 05:40:57;;;;;;;1.67;1.20;;;;;;;-145.18;100.00;46650.63;4970565;28;20284;-74
2022/09/21 05:43:23;;;;;;;1.83;1.20;;;;;;;-145.18;100.00;46648.69;4990354;28;20681;-74
2022/09/21 05:45:57;;;;;;;1.77;1.20;;;;;;;-145.18;100.00;46648.69;4972941;28;20060;-75
2022/09/21 05:48:30;;;;;;;6.33;1.40;;;;;;;-145.18;100.00;46646.72;4977320;28;20023;-74
2022/09/21 05:51:26;;;;;;;1.67;1.43;;;;;;;-145.18;100.00;46644.78;4965617;28;20373;-74
2022/09/21 05:53:59;;;;;;;2.75;1.55;;;;;;;-145.18;100.00;46644.78;4970406;28;20261;-74
2022/09/21 05:56:34;;;;;;;6.40;1.80;;;;;;;-145.18;100.00;46648.69;4953233;28;20039;-74
2022/09/21 05:59:17;;;;;;;5.33;2.23;;;;;;;-145.18;100.00;46652.59;4950986;29;20324;-74
2022/09/21 06:02:31;;;;;;;3.97;1.97;;;;;;;-145.18;100.00;46644.78;4958796;28;20269;-74
2022/09/21 06:05:00;;;;;;;4.50;2.10;;;;;;;-145.18;100.00;46648.69;4941161;29;20281;-75
2022/09/21 06:07:25;;;;;;;2.30;1.33;;;;;;;-145.18;100.00;46648.69;4962542;28;20295;-74
2022/09/21 06:09:51;;;;;;;2.77;1.60;;;;;;;-145.18;100.00;46644.78;4969935;28;20276;-74
2022/09/21 06:12:16;;;;;;;2.37;1.47;;;;;;;-145.18;100.00;46644.78;4973763;28;20525;-75
2022/09/21 06:14:43;;;;;;;1.60;1.30;;;;;;;-145.18;100.00;46652.59;4972748;28;20037;-74
2022/09/21 06:17:08;;;;;;;2.20;1.50;;;;;;;-145.18;100.00;46648.69;4974068;28;20042;-75
2022/09/21 06:19:33;;;;;;;2.57;1.70;;;;;;;-145.18;100.00;46644.78;4973526;28;20276;-75
2022/09/21 06:21:59;;;;;;;2.70;1.63;;;;;;;-145.18;100.00;46644.78;4974011;28;20047;-74
2022/09/21 06:24:24;;;;;;;3.00;1.80;;;;;;;-145.18;100.00;46648.69;4973410;28;20078;-75
2022/09/21 06:26:49;;;;;;;3.77;2.13;;;;;;;-145.18;100.00;46648.69;4968525;28;20038;-74
2022/09/21 06:29:16;;;;;;;5.57;3.20;;;;;;;-145.18;100.00;46648.69;4973502;28;20122;-74
2022/09/21 06:31:41;;;;;;;6.57;3.10;;;;;;;-145.18;100.00;46650.63;4974003;28;20105;-74
2022/09/21 06:34:07;;;;;;;6.97;3.13;;;;;;;-145.18;100.00;46648.69;4972057;28;20836;-75
2022/09/21 06:36:32;;;;;;;4.40;2.70;;;;;;;-145.18;100.00;46644.78;4974124;28;20037;-74
2022/09/21 06:38:57;;;;;;;6.17;2.70;;;;;;;-145.18;100.00;46648.69;4973149;28;20105;-74
2022/09/21 06:41:23;;;;;;;8.63;2.80;;;;;;;-145.18;100.00;46646.72;4973972;28;20059;-74
2022/09/21 06:43:52;;;;;;;10.33;3.20;;;;;;;-145.18;100.00;46646.72;4973435;28;20502;-74
2022/09/21 06:46:17;;;;;;;6.73;3.23;;;;;;;-145.18;100.00;46642.81;4973209;28;20039;-74
2022/09/21 06:48:42;;;;;;;9.73;3.20;;;;;;;-145.18;100.00;46642.81;4973511;28;20279;-75
2022/09/21 06:51:08;;;;;;;8.33;4.20;;;;;;;-145.18;100.00;46642.81;4971970;28;20121;-74
2022/09/21 06:53:34;;;;;;;10.47;4.33;;;;;;;-145.18;100.00;46644.78;4973079;28;20030;-74
2022/09/21 06:56:04;;;;;;;9.53;4.40;;;;;;;-145.18;100.00;46640.88;4973330;28;20296;-74
2022/09/21 06:58:33;;;;;;;9.53;5.40;;;;;;;-145.18;100.00;46644.78;4972998;28;20125;-75
2022/09/21 07:01:02;;;;;;;11.03;6.60;;;;;;;-145.18;100.00;46646.72;4973426;28;20301;-74
2022/09/21 07:03:28;;;;;;;19.83;7.10;;;;;;;-145.18;100.00;46646.72;5000499;28;20302;-74
2022/09/21 07:05:53;;;;;;;13.70;6.47;;;;;;;-145.18;100.00;46644.78;5012569;28;20291;-74
2022/09/21 07:08:19;;;;;;;11.87;6.57;;;;;;;-145.18;100.00;46644.78;5011715;28;20026;-75
2022/09/21 07:10:44;;;;;;;11.53;6.70;;;;;;;-145.18;100.00;46646.72;5012259;28;20088;-74
2022/09/21 07:13:09;;;;;;;11.90;7.00;;;;;;;-145.18;100.00;46644.78;5011719;28;20450;-74
2022/09/21 07:15:35;;;;;;;11.63;6.57;;;;;;;-145.18;100.00;46650.63;5012285;28;20517;-74
2022/09/21 07:18:09;;;;;;;18.20;7.60;;;;;;;-145.18;100.00;46648.69;5011537;28;20052;-75
2022/09/21 07:20:35;;;;;;;17.27;7.90;;;;;;;-145.18;100.00;46646.72;5011760;28;20026;-74
2022/09/21 07:23:08;;;;;;;16.37;7.77;;;;;;;-145.18;100.00;46644.78;5011151;28;20022;-74
2022/09/21 07:25:33;;;;;;;12.87;7.87;;;;;;;-145.18;100.00;46644.78;4974057;28;20041;-74
2022/09/21 07:27:59;;;;;;;15.03;8.27;;;;;;;-145.18;100.00;46648.69;4975516;28;20466;-74
2022/09/21 07:30:26;;;;;;;15.53;8.10;;;;;;;-145.18;100.00;46648.69;4994545;28;20088;-74
2022/09/21 07:32:51;;;;;;;15.23;7.10;;;;;;;-145.18;100.00;46648.69;5011294;28;20049;-74
2022/09/21 07:35:18;;;;;;;14.53;6.93;;;;;;;-145.18;100.00;46648.69;5011973;28;20034;-74
2022/09/21 07:37:43;;;;;;;15.33;6.20;;;;;;;-145.18;100.00;46650.63;5012076;28;20030;-74
2022/09/21 07:40:09;;;;;;;17.13;7.17;;;;;;;-145.18;100.00;46646.72;5011346;28;20096;-74
2022/09/21 07:42:34;;;;;;;13.60;6.07;;;;;;;-145.18;100.00;46650.63;5006357;28;20069;-74
2022/09/21 07:45:00;;;;;;;17.30;8.07;;;;;;;-145.18;100.00;46652.59;4990997;28;20471;-74
2022/09/21 07:47:26;;;;;;;13.53;6.27;;;;;;;-145.18;100.00;46650.63;4991905;28;20474;-74
2022/09/21 07:49:52;;;;;;;13.47;6.10;;;;;;;-145.18;100.00;46648.69;4993399;28;20080;-75
2022/09/21 07:52:18;;;;;;;14.67;5.43;;;;;;;-145.18;100.00;46654.53;5011255;28;20022;-75
2022/09/21 07:54:44;;;;;;;14.00;4.93;;;;;;;-145.18;100.00;46660.41;5000393;28;20550;-75
2022/09/21 07:59:57;;;;;;;14.23;5.60;;;;;;;-145.18;100.00;46664.31;5011164;28;20514;-75
2022/09/21 08:02:22;;;;;;;16.70;4.40;;;;;;;-145.18;100.00;46668.22;5011083;28;20054;-75
2022/09/21 08:04:48;;;;;;;10.47;4.33;;;;;;;-145.18;100.00;46668.22;5010759;28;20059;-75
2022/09/21 08:07:13;;;;;;;13.90;4.13;;;;;;;-145.18;100.00;46670.16;4993105;28;20065;-74
2022/09/21 08:09:39;;;;;;;9.20;2.47;;;;;;;-145.18;100.00;46670.16;4990709;28;20110;-75
2022/09/21 08:12:05;;;;;;;14.30;3.10;;;;;;;-145.18;100.00;46672.13;4991241;28;20041;-75
2022/09/21 08:14:31;;;;;;;9.40;2.97;;;;;;;-145.18;100.00;46676.03;4991015;28;20031;-75
2022/09/21 08:16:56;;;;;;;11.10;2.70;;;;;;;-145.18;100.00;46676.03;5011405;28;20033;-74
2022/09/21 08:19:24;;;;;;;12.50;3.10;;;;;;;-145.18;100.00;46676.03;4993156;28;20029;-75
2022/09/21 08:21:50;;;;;;;12.77;3.07;;;;;;;-145.18;100.00;46681.88;5011028;28;20497;-74
2022/09/21 08:24:15;;;;;;;10.30;2.53;;;;;;;-145.18;100.00;46679.94;5010545;28;20045;-75
2022/09/21 08:26:41;;;;;;;6.63;2.80;;;;;;;-145.18;100.00;46676.03;4994045;28;20042;-74
2022/09/21 08:29:07;;;;;;;4.20;2.03;;;;;;;-145.18;100.00;46652.59;4973258;28;20475;-74
2022/09/21 08:31:32;;;;;;;16.23;3.50;;;;;;;-145.18;100.00;46625.22;4973030;28;20415;-74
2022/09/21 08:33:59;;;;;;;8.93;3.17;;;;;;;-145.18;100.00;46584.22;4990259;28;20030;-75
2022/09/21 08:36:25;;;;;;;10.53;2.83;;;;;;;-145.18;100.00;46570.53;4994069;28;20030;-75
2022/09/21 08:38:51;;;;;;;12.63;2.97;;;;;;;-145.18;100.00;46558.81;4994614;28;20045;-75
2022/09/21 08:41:27;;;;;;;17.17;3.07;;;;;;;-145.18;100.00;46562.72;4984024;28;20035;-75
2022/09/21 08:44:02;;;;;;;11.10;3.77;;;;;;;-145.18;100.00;46562.72;4989837;28;20033;-75
2022/09/21 08:46:30;;;;;;;9.77;3.17;;;;;;;-145.18;100.00;46558.81;4986717;28;20025;-74
2022/09/21 08:49:01;;;;;;;11.30;3.10;;;;;;;-145.18;100.00;46562.72;4992494;28;20038;-74
2022/09/21 08:51:30;;;;;;;12.93;3.43;;;;;;;-145.18;100.00;46554.91;4989442;28;20037;-74
2022/09/21 08:54:01;;;;;;;8.87;3.83;;;;;;;-145.18;100.00;46564.69;4985434;28;20018;-74
2022/09/21 08:56:26;;;;;;;9.17;3.00;;;;;;;-145.18;100.00;46564.69;4990019;28;20133;-74
2022/09/21 08:58:52;;;;;;;7.27;1.90;;;;;;;-145.18;100.00;46574.44;4989740;28;20521;-74
2022/09/21 09:01:32;;;;;;;10.27;3.40;;;;;;;-145.18;100.00;46572.50;4995715;28;20014;-74
2022/09/21 09:04:06;;;;;;;5.97;1.70;;;;;;;-145.18;100.00;46578.34;4992542;28;20042;-74
2022/09/21 09:07:17;;;;;;;6.60;1.97;;;;;;;-145.18;100.00;46582.25;5010319;28;20057;-74
2022/09/21 09:09:48;;;;;;;6.23;2.70;;;;;;;-145.18;100.00;46586.16;5010383;28;20521;-74
2022/09/21 09:13:00;;;;;;;14.07;2.80;;;;;;;-145.18;100.00;46588.13;5010428;28;20018;-74
2022/09/21 09:15:47;;;;;;;8.80;1.73;;;;;;;-145.18;100.00;46590.06;5009986;28;20045;-74
2022/09/21 09:18:25;;;;;;;9.07;2.00;;;;;;;-145.18;100.00;46592.03;5009877;28;20551;-74
2022/09/21 09:21:17;;;;;;;6.50;1.60;;;;;;;-145.18;100.00;46597.88;5010398;28;20037;-74
2022/09/21 09:23:50;;;;;;;7.00;2.00;;;;;;;-145.18;100.00;46593.97;5009526;28;20038;-74
2022/09/21 09:26:35;;;;;;;6.57;1.70;;;;;;;-145.18;100.00;46592.03;4996830;28;20041;-74
2022/09/21 09:29:11;;;;;;;9.43;1.98;;;;;;;-145.18;100.00;46603.75;4990254;28;20037;-74
2022/09/21 09:31:38;;;;;;;8.50;1.33;;;;;;;-145.18;100.00;46605.69;4990925;28;20031;-74
2022/09/21 09:34:15;;;;;;;7.10;1.40;;;;;;;-145.18;100.00;46631.09;4990123;28;20037;-74
2022/09/21 09:36:51;;;;;;;10.00;1.40;;;;;;;-145.18;100.00;46672.13;4973281;28;20080;-74
2022/09/21 09:39:16;;;;;;;6.32;1.30;;;;;;;-145.18;100.00;46695.56;4990316;28;20022;-74
2022/09/21 09:41:59;;;;;;;8.00;1.70;;;;;;;-145.18;100.00;46707.28;4997610;28;20034;-74
2022/09/21 09:44:47;;;;;;;5.20;1.83;;;;;;;-145.18;100.00;46693.59;5009715;28;20038;-74
2022/09/21 09:48:05;;;;;;;8.47;1.47;;;;;;;-145.18;100.00;46711.19;5013069;28;20036;-74
2022/09/21 09:50:37;;;;;;;9.17;1.70;;;;;;;-145.18;100.00;46861.59;4953008;29;20049;-75
2022/09/21 09:53:16;;;;;;;7.40;2.33;;;;;;;-145.18;100.00;47103.81;4953342;29;20046;-74
2022/09/21 09:55:46;;;;;;;6.90;1.80;;;;;;;-145.18;100.00;47043.28;4995169;28;20437;-75
2022/09/21 09:58:22;;;;;;;4.67;1.50;;;;;;;-145.18;100.00;47219.09;5013659;28;20034;-75
2022/09/21 10:00:52;;;;;;;6.77;1.40;;;;;;;-145.18;100.00;46953.41;5013591;28;20056;-75
2022/09/21 10:03:23;;;;;;;5.93;1.50;;;;;;;-145.18;100.00;47109.69;4997615;28;20057;-74
2022/09/21 10:05:49;;;;;;;10.90;1.83;;;;;;;-145.18;100.00;47314.81;4992985;28;20041;-74
2022/09/21 10:08:34;;;;;;;6.50;1.30;;;;;;;-145.18;100.00;47260.13;4987179;28;20117;-75
2022/09/21 10:10:59;;;;;;;8.67;1.50;;;;;;;-145.18;100.00;47240.56;4988577;28;20044;-74
2022/09/21 10:13:32;;;;;;;9.30;1.60;;;;;;;-145.18;100.00;47287.47;4991542;28;20117;-75
2022/09/21 10:16:04;;;;;;;8.70;2.37;;;;;;;-145.18;100.00;47215.19;4990306;28;20026;-74
2022/09/21 10:18:55;;;;;;;3.60;1.70;;;;;;;-145.18;100.00;47226.91;4989920;28;20026;-74
2022/09/21 10:21:22;;;;;;;7.67;1.40;;;;;;;-145.18;100.00;47232.75;4991949;28;20065;-74
2022/09/21 10:24:00;;;;;;;6.43;1.60;;;;;;;-145.18;100.00;47269.88;4992050;28;20030;-74
2022/09/21 10:26:53;;;;;;;4.57;1.50;;;;;;;-145.18;100.00;47273.78;4992162;28;20045;-74
2022/09/21 10:29:21;;;;;;;8.23;1.70;;;;;;;-145.18;100.00;47219.09;4991403;28;20434;-75
2022/09/21 10:31:57;;;;;;;9.47;2.20;;;;;;;-145.18;100.00;47191.75;4992554;28;20031;-74
2022/09/21 10:34:24;;;;;;;5.75;1.88;;;;;;;-145.18;100.00;47209.31;4992064;28;20034;-74
2022/09/21 10:36:55;;;;;;;4.90;1.60;;;;;;;-145.18;100.00;47191.75;4992979;28;20617;-75
2022/09/21 10:39:22;;;;;;;9.83;2.20;;;;;;;-145.18;100.00;47215.19;4988726;28;20085;-75
2022/09/21 10:41:55;;;;;;;4.40;1.37;;;;;;;-145.18;100.00;47176.09;4991788;28;20114;-74
2022/09/21 10:44:24;;;;;;;5.20;1.40;;;;;;;-145.18;100.00;47181.97;4991507;28;20033;-74
2022/09/21 10:46:50;;;;;;;9.27;1.30;;;;;;;-145.18;100.00;47154.63;4990276;28;20061;-75
2022/09/21 10:49:23;;;;;;;5.37;1.43;;;;;;;-145.18;100.00;47144.84;4981488;28;20390;-74
2022/09/21 10:51:52;;;;;;;6.83;1.30;;;;;;;-145.18;100.00;47150.72;4990363;28;20105;-74
2022/09/21 10:54:26;;;;;;;7.07;1.47;;;;;;;-145.18;100.00;47142.91;4991324;28;20035;-75
2022/09/21 10:56:59;;;;;;;7.37;1.63;;;;;;;-145.18;100.00;47140.94;4991250;28;20030;-75
2022/09/21 10:59:32;;;;;;;5.57;1.27;;;;;;;-145.18;100.00;47191.75;4991315;28;20030;-75
2022/09/21 11:02:00;;;;;;;7.60;1.90;;;;;;;-145.18;100.00;47226.91;4991552;28;20030;-74
2022/09/21 11:04:46;;;;;;;5.00;1.70;;;;;;;-145.18;100.00;47234.72;4991328;28;20579;-75
2022/09/21 11:07:32;;;;;;;4.50;1.23;;;;;;;-145.18;100.00;47195.66;4991190;28;20030;-75
2022/09/21 11:10:14;;;;;;;5.00;1.08;;;;;;;-145.18;100.00;47170.25;4990797;28;20030;-75
2022/09/21 11:13:00;;;;;;;7.43;1.57;;;;;;;-145.18;100.00;47203.47;4972134;28;20693;-75
2022/09/21 11:15:27;;;;;;;3.97;0.97;;;;;;;-145.18;100.00;47183.94;4971211;28;20074;-75
2022/09/21 11:17:59;;;;;;;6.23;1.37;;;;;;;-145.18;100.00;47236.66;4971384;28;20110;-75
2022/09/21 11:20:58;;;;;;;8.33;1.27;;;;;;;-145.18;100.00;47215.19;4984368;28;20037;-75
2022/09/21 11:23:42;;;;;;;6.27;1.20;;;;;;;-145.18;100.00;47191.75;4971218;28;20113;-75
2022/09/21 11:26:40;;;;;;;6.90;1.30;;;;;;;-145.18;100.00;47238.63;4970006;28;20035;-75